sensor_id;sensor_type;location;lat;lon;timestamp;P1;durP1;ratioP1;P2;durP2;ratioP2
82869;SDS011;72645;47.136;15.420;2024-01-15T00:01:25;39.60;;;16.10;;
82869;SDS011;72645;47.136;15.420;2024-01-15T00:03:56;41.80;;;15.50;;
82869;SDS011;72645;47.136;15.420;2024-01-15T00:06:28;35.70;;;15.70;;
82869;SDS011;72645;47.136;15.420;2024-01-15T00:09:00;38.40;;;15.10;;
82869;SDS011;72645;47.136;15.420;2024-01-15T00:14:01;28.50;;;11.40;;
82869;SDS011;72645;47.136;15.420;2024-01-15T00:16:32;29.90;;;11.70;;
82869;SDS011;72645;47.136;15.420;2024-01-15T00:19:03;25.20;;;11.60;;
82869;SDS011;72645;47.136;15.420;2024-01-15T00:21:34;23.60;;;10.50;;
82869;SDS011;72645;47.136;15.420;2024-01-15T00:26:35;25.70;;;10.00;;
82869;SDS011;72645;47.136;15.420;2024-01-15T00:29:06;25.10;;;10.30;;
82869;SDS011;72645;47.136;15.420;2024-01-15T00:31:37;31.20;;;12.20;;
82869;SDS011;72645;47.136;15.420;2024-01-15T00:34:08;30.40;;;12.70;;
82869;SDS011;72645;47.136;15.420;2024-01-15T00:36:39;31.40;;;12.40;;
82869;SDS011;72645;47.136;15.420;2024-01-15T00:39:10;27.10;;;10.90;;
82869;SDS011;72645;47.136;15.420;2024-01-15T00:41:41;29.00;;;12.80;;
82869;SDS011;72645;47.136;15.420;2024-01-15T00:44:12;30.20;;;12.60;;
82869;SDS011;72645;47.136;15.420;2024-01-15T00:46:44;23.80;;;11.60;;
82869;SDS011;72645;47.136;15.420;2024-01-15T00:49:16;26.90;;;10.60;;
82869;SDS011;72645;47.136;15.420;2024-01-15T00:51:47;29.70;;;12.80;;
82869;SDS011;72645;47.136;15.420;2024-01-15T00:54:18;26.80;;;10.20;;
82869;SDS011;72645;47.136;15.420;2024-01-15T00:56:49;21.80;;;9.10;;
82869;SDS011;72645;47.136;15.420;2024-01-15T00:59:20;24.00;;;10.70;;
82869;SDS011;72645;47.136;15.420;2024-01-15T01:01:51;52.60;;;17.00;;
82869;SDS011;72645;47.136;15.420;2024-01-15T01:04:22;48.10;;;16.90;;
82869;SDS011;72645;47.136;15.420;2024-01-15T01:09:23;39.50;;;12.70;;
82869;SDS011;72645;47.136;15.420;2024-01-15T01:11:57;30.20;;;13.30;;
82869;SDS011;72645;47.136;15.420;2024-01-15T01:16:57;26.30;;;11.00;;
82869;SDS011;72645;47.136;15.420;2024-01-15T01:19:28;28.60;;;11.90;;
82869;SDS011;72645;47.136;15.420;2024-01-15T01:21:59;30.20;;;12.50;;
82869;SDS011;72645;47.136;15.420;2024-01-15T01:24:30;29.00;;;11.90;;
82869;SDS011;72645;47.136;15.420;2024-01-15T01:27:02;25.20;;;11.10;;
82869;SDS011;72645;47.136;15.420;2024-01-15T01:29:33;26.20;;;10.90;;
82869;SDS011;72645;47.136;15.420;2024-01-15T01:32:05;24.80;;;12.00;;
82869;SDS011;72645;47.136;15.420;2024-01-15T01:34:39;28.20;;;11.10;;
82869;SDS011;72645;47.136;15.420;2024-01-15T01:37:11;21.80;;;9.70;;
82869;SDS011;72645;47.136;15.420;2024-01-15T01:39:43;26.50;;;10.70;;
82869;SDS011;72645;47.136;15.420;2024-01-15T01:42:15;25.60;;;10.80;;
82869;SDS011;72645;47.136;15.420;2024-01-15T01:44:46;19.30;;;9.00;;
82869;SDS011;72645;47.136;15.420;2024-01-15T01:47:17;13.20;;;6.80;;
82869;SDS011;72645;47.136;15.420;2024-01-15T01:49:48;15.70;;;7.00;;
82869;SDS011;72645;47.136;15.420;2024-01-15T01:52:19;15.80;;;8.10;;
82869;SDS011;72645;47.136;15.420;2024-01-15T01:54:51;20.50;;;9.00;;
82869;SDS011;72645;47.136;15.420;2024-01-15T01:57:23;23.40;;;9.90;;
82869;SDS011;72645;47.136;15.420;2024-01-15T01:59:54;16.10;;;7.20;;
82869;SDS011;72645;47.136;15.420;2024-01-15T02:02:27;19.20;;;8.20;;
82869;SDS011;72645;47.136;15.420;2024-01-15T02:07:27;20.90;;;7.20;;
82869;SDS011;72645;47.136;15.420;2024-01-15T02:09:58;22.10;;;8.60;;
82869;SDS011;72645;47.136;15.420;2024-01-15T02:12:29;26.20;;;10.60;;
82869;SDS011;72645;47.136;15.420;2024-01-15T02:15:01;22.90;;;9.60;;
82869;SDS011;72645;47.136;15.420;2024-01-15T02:17:32;19.90;;;9.00;;
82869;SDS011;72645;47.136;15.420;2024-01-15T02:20:04;20.20;;;8.80;;
82869;SDS011;72645;47.136;15.420;2024-01-15T02:22:36;19.80;;;7.90;;
82869;SDS011;72645;47.136;15.420;2024-01-15T02:27:37;63.50;;;18.40;;
82869;SDS011;72645;47.136;15.420;2024-01-15T02:32:39;33.20;;;12.80;;
82869;SDS011;72645;47.136;15.420;2024-01-15T02:35:10;35.30;;;13.90;;
82869;SDS011;72645;47.136;15.420;2024-01-15T02:40:11;27.20;;;12.30;;
82869;SDS011;72645;47.136;15.420;2024-01-15T02:42:42;31.90;;;11.80;;
82869;SDS011;72645;47.136;15.420;2024-01-15T02:45:13;27.20;;;12.10;;
82869;SDS011;72645;47.136;15.420;2024-01-15T02:47:44;30.00;;;12.50;;
82869;SDS011;72645;47.136;15.420;2024-01-15T02:50:16;30.00;;;13.80;;
82869;SDS011;72645;47.136;15.420;2024-01-15T02:52:47;27.00;;;11.20;;
82869;SDS011;72645;47.136;15.420;2024-01-15T02:55:18;24.00;;;10.90;;
82869;SDS011;72645;47.136;15.420;2024-01-15T03:00:18;20.10;;;9.40;;
82869;SDS011;72645;47.136;15.420;2024-01-15T03:02:50;21.60;;;10.10;;
82869;SDS011;72645;47.136;15.420;2024-01-15T03:05:21;25.70;;;10.60;;
82869;SDS011;72645;47.136;15.420;2024-01-15T03:10:21;21.10;;;10.20;;
82869;SDS011;72645;47.136;15.420;2024-01-15T03:15:22;22.80;;;9.30;;
82869;SDS011;72645;47.136;15.420;2024-01-15T03:20:22;24.80;;;9.30;;
82869;SDS011;72645;47.136;15.420;2024-01-15T03:25:22;23.40;;;9.30;;
82869;SDS011;72645;47.136;15.420;2024-01-15T03:27:53;23.80;;;8.70;;
82869;SDS011;72645;47.136;15.420;2024-01-15T03:32:54;23.30;;;8.30;;
82869;SDS011;72645;47.136;15.420;2024-01-15T03:35:25;22.50;;;10.00;;
82869;SDS011;72645;47.136;15.420;2024-01-15T03:37:57;23.90;;;8.60;;
82869;SDS011;72645;47.136;15.420;2024-01-15T03:40:28;19.10;;;7.60;;
82869;SDS011;72645;47.136;15.420;2024-01-15T03:42:59;27.90;;;10.10;;
82869;SDS011;72645;47.136;15.420;2024-01-15T03:45:30;23.90;;;8.80;;
82869;SDS011;72645;47.136;15.420;2024-01-15T03:50:30;17.30;;;6.60;;
82869;SDS011;72645;47.136;15.420;2024-01-15T03:55:31;20.70;;;7.60;;
82869;SDS011;72645;47.136;15.420;2024-01-15T03:58:02;21.40;;;8.70;;
82869;SDS011;72645;47.136;15.420;2024-01-15T04:03:02;62.80;;;18.50;;
82869;SDS011;72645;47.136;15.420;2024-01-15T04:08:02;58.80;;;19.80;;
82869;SDS011;72645;47.136;15.420;2024-01-15T04:10:34;44.70;;;19.00;;
82869;SDS011;72645;47.136;15.420;2024-01-15T04:13:05;31.70;;;12.60;;
82869;SDS011;72645;47.136;15.420;2024-01-15T04:15:36;25.60;;;10.60;;
82869;SDS011;72645;47.136;15.420;2024-01-15T04:18:07;22.70;;;9.80;;
82869;SDS011;72645;47.136;15.420;2024-01-15T04:23:07;18.00;;;7.70;;
82869;SDS011;72645;47.136;15.420;2024-01-15T04:25:38;18.20;;;8.10;;
82869;SDS011;72645;47.136;15.420;2024-01-15T04:28:10;18.40;;;8.60;;
82869;SDS011;72645;47.136;15.420;2024-01-15T04:30:41;21.60;;;8.60;;
82869;SDS011;72645;47.136;15.420;2024-01-15T04:33:12;23.90;;;9.70;;
82869;SDS011;72645;47.136;15.420;2024-01-15T04:35:43;21.90;;;9.60;;
82869;SDS011;72645;47.136;15.420;2024-01-15T04:38:14;20.40;;;8.40;;
82869;SDS011;72645;47.136;15.420;2024-01-15T04:40:45;16.80;;;7.40;;
82869;SDS011;72645;47.136;15.420;2024-01-15T04:45:46;16.00;;;7.10;;
82869;SDS011;72645;47.136;15.420;2024-01-15T04:50:46;15.30;;;5.90;;
82869;SDS011;72645;47.136;15.420;2024-01-15T04:55:46;14.90;;;5.60;;
82869;SDS011;72645;47.136;15.420;2024-01-15T04:58:17;15.00;;;6.40;;
82869;SDS011;72645;47.136;15.420;2024-01-15T05:00:48;16.70;;;7.90;;
82869;SDS011;72645;47.136;15.420;2024-01-15T05:03:19;24.90;;;9.70;;
82869;SDS011;72645;47.136;15.420;2024-01-15T05:05:51;47.70;;;17.40;;
82869;SDS011;72645;47.136;15.420;2024-01-15T05:08:22;36.80;;;15.20;;
82869;SDS011;72645;47.136;15.420;2024-01-15T05:10:53;28.60;;;12.30;;
82869;SDS011;72645;47.136;15.420;2024-01-15T05:13:24;22.50;;;11.30;;
82869;SDS011;72645;47.136;15.420;2024-01-15T05:15:55;17.90;;;10.00;;
82869;SDS011;72645;47.136;15.420;2024-01-15T05:18:27;19.60;;;8.70;;
82869;SDS011;72645;47.136;15.420;2024-01-15T05:20:58;13.20;;;7.50;;
82869;SDS011;72645;47.136;15.420;2024-01-15T05:25:59;15.90;;;7.00;;
82869;SDS011;72645;47.136;15.420;2024-01-15T05:28:30;16.80;;;7.40;;
82869;SDS011;72645;47.136;15.420;2024-01-15T05:31:01;16.50;;;8.50;;
82869;SDS011;72645;47.136;15.420;2024-01-15T05:33:33;18.00;;;8.00;;
82869;SDS011;72645;47.136;15.420;2024-01-15T05:36:04;15.00;;;6.90;;
82869;SDS011;72645;47.136;15.420;2024-01-15T05:38:36;17.80;;;7.10;;
82869;SDS011;72645;47.136;15.420;2024-01-15T05:41:07;16.70;;;7.20;;
82869;SDS011;72645;47.136;15.420;2024-01-15T05:43:38;12.40;;;6.30;;
82869;SDS011;72645;47.136;15.420;2024-01-15T05:48:38;13.00;;;4.80;;
82869;SDS011;72645;47.136;15.420;2024-01-15T05:51:10;11.30;;;6.00;;
82869;SDS011;72645;47.136;15.420;2024-01-15T05:56:12;10.60;;;4.90;;
82869;SDS011;72645;47.136;15.420;2024-01-15T06:01:12;10.70;;;4.40;;
82869;SDS011;72645;47.136;15.420;2024-01-15T06:03:43;13.50;;;5.40;;
82869;SDS011;72645;47.136;15.420;2024-01-15T06:08:44;10.40;;;5.20;;
82869;SDS011;72645;47.136;15.420;2024-01-15T06:11:14;10.90;;;6.10;;
82869;SDS011;72645;47.136;15.420;2024-01-15T06:13:45;25.50;;;9.90;;
82869;SDS011;72645;47.136;15.420;2024-01-15T06:16:16;27.20;;;13.00;;
82869;SDS011;72645;47.136;15.420;2024-01-15T06:18:48;25.20;;;10.30;;
82869;SDS011;72645;47.136;15.420;2024-01-15T06:21:19;22.80;;;11.40;;
82869;SDS011;72645;47.136;15.420;2024-01-15T06:23:51;17.40;;;7.50;;
82869;SDS011;72645;47.136;15.420;2024-01-15T06:26:24;18.30;;;8.20;;
82869;SDS011;72645;47.136;15.420;2024-01-15T06:28:55;22.60;;;10.20;;
82869;SDS011;72645;47.136;15.420;2024-01-15T06:31:26;20.00;;;10.00;;
82869;SDS011;72645;47.136;15.420;2024-01-15T06:33:58;14.90;;;7.40;;
82869;SDS011;72645;47.136;15.420;2024-01-15T06:36:29;13.00;;;6.10;;
82869;SDS011;72645;47.136;15.420;2024-01-15T06:41:29;13.80;;;6.10;;
82869;SDS011;72645;47.136;15.420;2024-01-15T06:44:00;15.20;;;6.90;;
82869;SDS011;72645;47.136;15.420;2024-01-15T06:49:00;14.40;;;6.20;;
82869;SDS011;72645;47.136;15.420;2024-01-15T06:54:01;11.90;;;6.10;;
82869;SDS011;72645;47.136;15.420;2024-01-15T06:56:32;15.70;;;6.00;;
82869;SDS011;72645;47.136;15.420;2024-01-15T06:59:03;12.80;;;5.70;;
82869;SDS011;72645;47.136;15.420;2024-01-15T07:01:34;12.70;;;6.90;;
82869;SDS011;72645;47.136;15.420;2024-01-15T07:06:34;10.80;;;5.20;;
82869;SDS011;72645;47.136;15.420;2024-01-15T07:09:05;11.50;;;6.80;;
82869;SDS011;72645;47.136;15.420;2024-01-15T07:11:37;20.90;;;8.00;;
82869;SDS011;72645;47.136;15.420;2024-01-15T07:14:13;21.90;;;9.60;;
82869;SDS011;72645;47.136;15.420;2024-01-15T07:16:44;33.80;;;16.60;;
82869;SDS011;72645;47.136;15.420;2024-01-15T07:19:15;31.70;;;13.10;;
82869;SDS011;72645;47.136;15.420;2024-01-15T07:21:47;25.80;;;10.10;;
82869;SDS011;72645;47.136;15.420;2024-01-15T07:24:20;24.70;;;9.30;;
82869;SDS011;72645;47.136;15.420;2024-01-15T07:26:51;15.70;;;8.30;;
82869;SDS011;72645;47.136;15.420;2024-01-15T07:31:52;19.60;;;9.10;;
82869;SDS011;72645;47.136;15.420;2024-01-15T07:34:23;11.90;;;5.00;;
82869;SDS011;72645;47.136;15.420;2024-01-15T07:36:55;16.30;;;5.90;;
82869;SDS011;72645;47.136;15.420;2024-01-15T07:39:26;10.40;;;4.80;;
82869;SDS011;72645;47.136;15.420;2024-01-15T07:41:58;11.70;;;5.30;;
82869;SDS011;72645;47.136;15.420;2024-01-15T07:46:58;11.30;;;4.80;;
82869;SDS011;72645;47.136;15.420;2024-01-15T07:49:29;10.70;;;5.70;;
82869;SDS011;72645;47.136;15.420;2024-01-15T07:52:00;16.40;;;5.60;;
82869;SDS011;72645;47.136;15.420;2024-01-15T07:54:33;13.00;;;7.00;;
82869;SDS011;72645;47.136;15.420;2024-01-15T08:02:03;11.90;;;6.40;;
82869;SDS011;72645;47.136;15.420;2024-01-15T08:07:05;37.90;;;15.90;;
82869;SDS011;72645;47.136;15.420;2024-01-15T08:09:36;24.60;;;10.50;;
82869;SDS011;72645;47.136;15.420;2024-01-15T08:12:08;27.70;;;13.30;;
82869;SDS011;72645;47.136;15.420;2024-01-15T08:14:39;29.60;;;14.20;;
82869;SDS011;72645;47.136;15.420;2024-01-15T08:19:39;28.30;;;12.20;;
82869;SDS011;72645;47.136;15.420;2024-01-15T08:22:11;33.70;;;14.10;;
82869;SDS011;72645;47.136;15.420;2024-01-15T08:27:13;35.60;;;13.40;;
82869;SDS011;72645;47.136;15.420;2024-01-15T08:29:44;34.90;;;13.70;;
82869;SDS011;72645;47.136;15.420;2024-01-15T08:34:44;36.60;;;15.30;;
82869;SDS011;72645;47.136;15.420;2024-01-15T08:37:17;33.20;;;14.60;;
82869;SDS011;72645;47.136;15.420;2024-01-15T08:39:48;38.20;;;16.30;;
82869;SDS011;72645;47.136;15.420;2024-01-15T08:42:19;35.20;;;14.20;;
82869;SDS011;72645;47.136;15.420;2024-01-15T08:44:50;43.90;;;15.80;;
82869;SDS011;72645;47.136;15.420;2024-01-15T08:49:50;24.50;;;10.40;;
82869;SDS011;72645;47.136;15.420;2024-01-15T08:52:22;31.40;;;13.40;;
82869;SDS011;72645;47.136;15.420;2024-01-15T08:54:53;35.50;;;16.40;;
82869;SDS011;72645;47.136;15.420;2024-01-15T08:57:24;37.50;;;15.10;;
82869;SDS011;72645;47.136;15.420;2024-01-15T08:59:55;44.60;;;19.00;;
82869;SDS011;72645;47.136;15.420;2024-01-15T09:02:27;44.60;;;18.00;;
82869;SDS011;72645;47.136;15.420;2024-01-15T09:04:58;33.30;;;14.00;;
82869;SDS011;72645;47.136;15.420;2024-01-15T09:07:29;37.80;;;16.20;;
82869;SDS011;72645;47.136;15.420;2024-01-15T09:10:00;51.40;;;18.90;;
82869;SDS011;72645;47.136;15.420;2024-01-15T09:12:31;56.20;;;19.10;;
82869;SDS011;72645;47.136;15.420;2024-01-15T09:15:02;47.60;;;18.50;;
82869;SDS011;72645;47.136;15.420;2024-01-15T09:17:34;49.30;;;19.10;;
82869;SDS011;72645;47.136;15.420;2024-01-15T09:20:06;38.10;;;18.00;;
82869;SDS011;72645;47.136;15.420;2024-01-15T09:22:39;41.60;;;18.30;;
82869;SDS011;72645;47.136;15.420;2024-01-15T09:25:10;42.60;;;17.00;;
82869;SDS011;72645;47.136;15.420;2024-01-15T09:27:41;44.80;;;18.30;;
82869;SDS011;72645;47.136;15.420;2024-01-15T09:30:13;42.20;;;17.90;;
82869;SDS011;72645;47.136;15.420;2024-01-15T09:32:45;45.50;;;18.10;;
82869;SDS011;72645;47.136;15.420;2024-01-15T09:35:16;43.30;;;19.80;;
82869;SDS011;72645;47.136;15.420;2024-01-15T09:37:51;39.70;;;17.60;;
82869;SDS011;72645;47.136;15.420;2024-01-15T09:40:22;37.20;;;17.30;;
82869;SDS011;72645;47.136;15.420;2024-01-15T09:43:00;38.20;;;16.10;;
82869;SDS011;72645;47.136;15.420;2024-01-15T09:45:31;38.60;;;15.80;;
82869;SDS011;72645;47.136;15.420;2024-01-15T09:48:03;39.70;;;16.20;;
82869;SDS011;72645;47.136;15.420;2024-01-15T09:50:35;37.00;;;17.40;;
82869;SDS011;72645;47.136;15.420;2024-01-15T09:53:06;34.30;;;15.80;;
82869;SDS011;72645;47.136;15.420;2024-01-15T09:55:38;32.00;;;14.30;;
82869;SDS011;72645;47.136;15.420;2024-01-15T09:58:08;35.30;;;15.00;;
82869;SDS011;72645;47.136;15.420;2024-01-15T10:00:40;39.70;;;17.20;;
82869;SDS011;72645;47.136;15.420;2024-01-15T10:03:13;36.30;;;16.90;;
82869;SDS011;72645;47.136;15.420;2024-01-15T10:05:44;38.80;;;15.90;;
82869;SDS011;72645;47.136;15.420;2024-01-15T10:08:15;39.10;;;16.20;;
82869;SDS011;72645;47.136;15.420;2024-01-15T10:10:47;33.80;;;14.80;;
82869;SDS011;72645;47.136;15.420;2024-01-15T10:13:18;32.80;;;15.00;;
82869;SDS011;72645;47.136;15.420;2024-01-15T10:15:50;31.50;;;13.70;;
82869;SDS011;72645;47.136;15.420;2024-01-15T10:18:22;28.70;;;13.20;;
82869;SDS011;72645;47.136;15.420;2024-01-15T10:20:53;34.00;;;14.20;;
82869;SDS011;72645;47.136;15.420;2024-01-15T10:23:25;31.90;;;15.90;;
82869;SDS011;72645;47.136;15.420;2024-01-15T10:25:57;31.80;;;14.40;;
82869;SDS011;72645;47.136;15.420;2024-01-15T10:28:29;37.90;;;18.00;;
82869;SDS011;72645;47.136;15.420;2024-01-15T10:31:00;29.50;;;15.70;;
82869;SDS011;72645;47.136;15.420;2024-01-15T10:33:32;34.50;;;15.60;;
82869;SDS011;72645;47.136;15.420;2024-01-15T10:36:03;33.10;;;13.50;;
82869;SDS011;72645;47.136;15.420;2024-01-15T10:38:41;26.40;;;12.40;;
82869;SDS011;72645;47.136;15.420;2024-01-15T10:41:12;27.70;;;12.70;;
82869;SDS011;72645;47.136;15.420;2024-01-15T10:43:44;25.90;;;13.10;;
82869;SDS011;72645;47.136;15.420;2024-01-15T10:46:15;26.90;;;12.20;;
82869;SDS011;72645;47.136;15.420;2024-01-15T10:48:46;26.30;;;11.80;;
82869;SDS011;72645;47.136;15.420;2024-01-15T10:51:17;22.10;;;11.40;;
82869;SDS011;72645;47.136;15.420;2024-01-15T10:53:48;25.40;;;11.40;;
82869;SDS011;72645;47.136;15.420;2024-01-15T10:56:20;25.20;;;10.30;;
82869;SDS011;72645;47.136;15.420;2024-01-15T10:58:52;21.30;;;9.30;;
82869;SDS011;72645;47.136;15.420;2024-01-15T11:01:27;15.10;;;7.30;;
82869;SDS011;72645;47.136;15.420;2024-01-15T11:03:59;19.30;;;8.10;;
82869;SDS011;72645;47.136;15.420;2024-01-15T11:06:40;14.90;;;6.80;;
82869;SDS011;72645;47.136;15.420;2024-01-15T11:09:13;13.70;;;7.00;;
82869;SDS011;72645;47.136;15.420;2024-01-15T11:11:46;13.70;;;6.40;;
82869;SDS011;72645;47.136;15.420;2024-01-15T11:14:38;12.80;;;6.20;;
82869;SDS011;72645;47.136;15.420;2024-01-15T11:17:12;13.50;;;7.10;;
82869;SDS011;72645;47.136;15.420;2024-01-15T11:19:44;13.50;;;6.40;;
82869;SDS011;72645;47.136;15.420;2024-01-15T11:25:19;13.60;;;6.20;;
82869;SDS011;72645;47.136;15.420;2024-01-15T11:27:51;19.10;;;7.50;;
82869;SDS011;72645;47.136;15.420;2024-01-15T11:30:25;12.50;;;6.20;;
82869;SDS011;72645;47.136;15.420;2024-01-15T11:32:56;12.60;;;6.40;;
82869;SDS011;72645;47.136;15.420;2024-01-15T11:35:31;15.60;;;7.40;;
82869;SDS011;72645;47.136;15.420;2024-01-15T11:38:28;15.70;;;7.20;;
82869;SDS011;72645;47.136;15.420;2024-01-15T11:40:59;12.50;;;6.60;;
82869;SDS011;72645;47.136;15.420;2024-01-15T11:43:42;12.90;;;6.60;;
82869;SDS011;72645;47.136;15.420;2024-01-15T11:46:14;16.90;;;6.40;;
82869;SDS011;72645;47.136;15.420;2024-01-15T11:48:47;14.20;;;7.00;;
82869;SDS011;72645;47.136;15.420;2024-01-15T11:51:30;16.10;;;6.80;;
82869;SDS011;72645;47.136;15.420;2024-01-15T11:54:02;13.10;;;6.60;;
82869;SDS011;72645;47.136;15.420;2024-01-15T11:56:39;13.30;;;6.40;;
82869;SDS011;72645;47.136;15.420;2024-01-15T11:59:11;14.60;;;7.40;;
82869;SDS011;72645;47.136;15.420;2024-01-15T12:01:42;15.30;;;8.30;;
82869;SDS011;72645;47.136;15.420;2024-01-15T12:04:13;14.90;;;7.30;;
82869;SDS011;72645;47.136;15.420;2024-01-15T12:06:47;14.60;;;6.90;;
82869;SDS011;72645;47.136;15.420;2024-01-15T12:09:20;12.50;;;6.50;;
82869;SDS011;72645;47.136;15.420;2024-01-15T12:11:54;12.00;;;5.80;;
82869;SDS011;72645;47.136;15.420;2024-01-15T12:14:33;13.60;;;6.40;;
82869;SDS011;72645;47.136;15.420;2024-01-15T12:17:04;14.50;;;6.80;;
82869;SDS011;72645;47.136;15.420;2024-01-15T12:19:36;16.20;;;6.50;;
82869;SDS011;72645;47.136;15.420;2024-01-15T12:22:07;11.20;;;6.10;;
82869;SDS011;72645;47.136;15.420;2024-01-15T12:24:38;13.50;;;6.10;;
82869;SDS011;72645;47.136;15.420;2024-01-15T12:27:09;16.20;;;6.80;;
82869;SDS011;72645;47.136;15.420;2024-01-15T12:29:40;13.80;;;6.50;;
82869;SDS011;72645;47.136;15.420;2024-01-15T12:32:13;13.00;;;6.50;;
82869;SDS011;72645;47.136;15.420;2024-01-15T12:34:44;9.90;;;6.50;;
82869;SDS011;72645;47.136;15.420;2024-01-15T12:37:15;11.90;;;6.40;;
82869;SDS011;72645;47.136;15.420;2024-01-15T12:39:48;15.20;;;5.40;;
82869;SDS011;72645;47.136;15.420;2024-01-15T12:42:22;12.00;;;6.20;;
82869;SDS011;72645;47.136;15.420;2024-01-15T12:44:54;10.20;;;6.20;;
82869;SDS011;72645;47.136;15.420;2024-01-15T12:47:26;14.20;;;6.60;;
82869;SDS011;72645;47.136;15.420;2024-01-15T12:49:57;15.40;;;5.90;;
82869;SDS011;72645;47.136;15.420;2024-01-15T12:52:43;14.40;;;5.90;;
82869;SDS011;72645;47.136;15.420;2024-01-15T12:55:15;11.80;;;6.10;;
82869;SDS011;72645;47.136;15.420;2024-01-15T12:57:46;11.40;;;5.80;;
82869;SDS011;72645;47.136;15.420;2024-01-15T13:00:20;11.60;;;6.50;;
82869;SDS011;72645;47.136;15.420;2024-01-15T13:02:53;11.20;;;6.00;;
82869;SDS011;72645;47.136;15.420;2024-01-15T13:05:25;14.00;;;6.20;;
82869;SDS011;72645;47.136;15.420;2024-01-15T13:07:58;10.60;;;5.80;;
82869;SDS011;72645;47.136;15.420;2024-01-15T13:10:29;12.40;;;5.80;;
82869;SDS011;72645;47.136;15.420;2024-01-15T13:13:00;12.70;;;5.90;;
82869;SDS011;72645;47.136;15.420;2024-01-15T13:15:32;14.20;;;6.60;;
82869;SDS011;72645;47.136;15.420;2024-01-15T13:18:04;16.20;;;7.10;;
82869;SDS011;72645;47.136;15.420;2024-01-15T13:20:37;14.30;;;6.30;;
82869;SDS011;72645;47.136;15.420;2024-01-15T13:23:08;16.00;;;6.80;;
82869;SDS011;72645;47.136;15.420;2024-01-15T13:25:39;15.30;;;6.30;;
82869;SDS011;72645;47.136;15.420;2024-01-15T13:28:10;14.20;;;7.80;;
82869;SDS011;72645;47.136;15.420;2024-01-15T13:30:41;11.40;;;7.20;;
82869;SDS011;72645;47.136;15.420;2024-01-15T13:33:12;11.70;;;6.60;;
82869;SDS011;72645;47.136;15.420;2024-01-15T13:35:44;13.70;;;6.20;;
82869;SDS011;72645;47.136;15.420;2024-01-15T13:38:18;14.80;;;7.20;;
82869;SDS011;72645;47.136;15.420;2024-01-15T13:40:48;13.80;;;7.00;;
82869;SDS011;72645;47.136;15.420;2024-01-15T13:43:21;13.90;;;7.10;;
82869;SDS011;72645;47.136;15.420;2024-01-15T13:45:51;14.00;;;6.90;;
82869;SDS011;72645;47.136;15.420;2024-01-15T13:48:23;15.00;;;8.60;;
82869;SDS011;72645;47.136;15.420;2024-01-15T13:50:54;15.50;;;7.30;;
82869;SDS011;72645;47.136;15.420;2024-01-15T13:53:25;12.70;;;7.30;;
82869;SDS011;72645;47.136;15.420;2024-01-15T13:55:57;15.00;;;7.60;;
82869;SDS011;72645;47.136;15.420;2024-01-15T13:58:28;15.10;;;7.30;;
82869;SDS011;72645;47.136;15.420;2024-01-15T14:01:00;16.30;;;6.60;;
82869;SDS011;72645;47.136;15.420;2024-01-15T14:03:32;14.50;;;7.10;;
82869;SDS011;72645;47.136;15.420;2024-01-15T14:06:03;16.70;;;6.70;;
82869;SDS011;72645;47.136;15.420;2024-01-15T14:08:36;16.10;;;7.10;;
82869;SDS011;72645;47.136;15.420;2024-01-15T14:11:07;14.10;;;7.10;;
82869;SDS011;72645;47.136;15.420;2024-01-15T14:13:39;14.90;;;6.00;;
82869;SDS011;72645;47.136;15.420;2024-01-15T14:16:10;12.70;;;6.50;;
82869;SDS011;72645;47.136;15.420;2024-01-15T14:18:41;13.90;;;6.40;;
82869;SDS011;72645;47.136;15.420;2024-01-15T14:21:12;15.30;;;6.50;;
82869;SDS011;72645;47.136;15.420;2024-01-15T14:23:43;13.70;;;6.30;;
82869;SDS011;72645;47.136;15.420;2024-01-15T14:26:14;13.40;;;5.70;;
82869;SDS011;72645;47.136;15.420;2024-01-15T14:28:45;13.90;;;6.90;;
82869;SDS011;72645;47.136;15.420;2024-01-15T14:31:18;9.40;;;5.20;;
82869;SDS011;72645;47.136;15.420;2024-01-15T14:33:52;11.60;;;5.50;;
82869;SDS011;72645;47.136;15.420;2024-01-15T14:36:24;15.30;;;7.30;;
82869;SDS011;72645;47.136;15.420;2024-01-15T14:38:55;13.30;;;6.60;;
82869;SDS011;72645;47.136;15.420;2024-01-15T14:41:26;11.70;;;5.70;;
82869;SDS011;72645;47.136;15.420;2024-01-15T14:43:57;12.10;;;5.80;;
82869;SDS011;72645;47.136;15.420;2024-01-15T14:46:28;11.60;;;6.10;;
82869;SDS011;72645;47.136;15.420;2024-01-15T14:48:59;11.80;;;5.20;;
82869;SDS011;72645;47.136;15.420;2024-01-15T14:51:30;8.80;;;5.10;;
82869;SDS011;72645;47.136;15.420;2024-01-15T14:54:01;11.20;;;6.70;;
82869;SDS011;72645;47.136;15.420;2024-01-15T14:56:32;15.50;;;6.20;;
82869;SDS011;72645;47.136;15.420;2024-01-15T14:59:03;11.50;;;6.20;;
82869;SDS011;72645;47.136;15.420;2024-01-15T15:01:34;12.70;;;6.00;;
82869;SDS011;72645;47.136;15.420;2024-01-15T15:04:06;12.00;;;6.10;;
82869;SDS011;72645;47.136;15.420;2024-01-15T15:06:38;13.00;;;5.90;;
82869;SDS011;72645;47.136;15.420;2024-01-15T15:09:09;16.50;;;5.90;;
82869;SDS011;72645;47.136;15.420;2024-01-15T15:11:41;12.10;;;8.30;;
82869;SDS011;72645;47.136;15.420;2024-01-15T15:14:12;14.20;;;6.20;;
82869;SDS011;72645;47.136;15.420;2024-01-15T15:16:43;15.40;;;6.50;;
82869;SDS011;72645;47.136;15.420;2024-01-15T15:19:14;16.50;;;7.10;;
82869;SDS011;72645;47.136;15.420;2024-01-15T15:21:47;13.80;;;6.20;;
82869;SDS011;72645;47.136;15.420;2024-01-15T15:24:18;15.00;;;6.80;;
82869;SDS011;72645;47.136;15.420;2024-01-15T15:26:49;17.80;;;8.30;;
82869;SDS011;72645;47.136;15.420;2024-01-15T15:29:22;15.00;;;7.70;;
82869;SDS011;72645;47.136;15.420;2024-01-15T15:31:53;13.40;;;6.60;;
82869;SDS011;72645;47.136;15.420;2024-01-15T15:34:24;18.50;;;7.40;;
82869;SDS011;72645;47.136;15.420;2024-01-15T15:36:55;20.70;;;7.40;;
82869;SDS011;72645;47.136;15.420;2024-01-15T15:39:26;14.10;;;6.30;;
82869;SDS011;72645;47.136;15.420;2024-01-15T15:41:58;19.30;;;7.40;;
82869;SDS011;72645;47.136;15.420;2024-01-15T15:44:30;16.80;;;6.80;;
82869;SDS011;72645;47.136;15.420;2024-01-15T15:47:01;12.00;;;6.60;;
82869;SDS011;72645;47.136;15.420;2024-01-15T15:49:32;15.20;;;6.70;;
82869;SDS011;72645;47.136;15.420;2024-01-15T15:52:04;14.90;;;7.40;;
82869;SDS011;72645;47.136;15.420;2024-01-15T15:54:35;15.90;;;7.60;;
82869;SDS011;72645;47.136;15.420;2024-01-15T15:57:06;15.40;;;7.70;;
82869;SDS011;72645;47.136;15.420;2024-01-15T15:59:37;18.20;;;7.70;;
82869;SDS011;72645;47.136;15.420;2024-01-15T16:02:08;15.90;;;7.30;;
82869;SDS011;72645;47.136;15.420;2024-01-15T16:04:39;18.20;;;8.90;;
82869;SDS011;72645;47.136;15.420;2024-01-15T16:07:10;18.40;;;7.10;;
82869;SDS011;72645;47.136;15.420;2024-01-15T16:09:42;18.30;;;7.70;;
82869;SDS011;72645;47.136;15.420;2024-01-15T16:12:13;15.40;;;7.20;;
82869;SDS011;72645;47.136;15.420;2024-01-15T16:14:44;20.30;;;7.60;;
82869;SDS011;72645;47.136;15.420;2024-01-15T16:17:15;14.70;;;7.10;;
82869;SDS011;72645;47.136;15.420;2024-01-15T16:20:06;15.70;;;7.30;;
82869;SDS011;72645;47.136;15.420;2024-01-15T16:22:59;16.60;;;8.30;;
82869;SDS011;72645;47.136;15.420;2024-01-15T16:25:49;21.30;;;8.50;;